This is the latest recevied weather packets stored in our database for station/object S54L-12. If no packets are shown the sender has not sent any weather packets the latest 10 day(s).
| Time | Temp. | Humidity | Pressure | Rain* | Wind** | Luminosity | Snow |
|---|---|---|---|---|---|---|---|
| 1788678863 | 29.44° C | 31% | 931.9 hPa | - | - | - | - |
| 1788677964 | 27.78° C | 34% | 931.8 hPa | - | - | - | - |
| 1788676164 | 24.44° C | 40% | 931.7 hPa | - | - | - | - |
| 1788672564 | 15.56° C | 67% | 931.3 hPa | - | - | - | - |
| 1788671664 | 15° C | 71% | 931.2 hPa | - | - | - | - |
| 1788670764 | 13.89° C | 75% | 931.1 hPa | - | - | - | - |
| 1788669864 | 13.33° C | 82% | 930.9 hPa | - | - | - | - |
| 1788668964 | 13.33° C | 83% | 931 hPa | - | - | - | - |
| 1788668064 | 13.33° C | 83% | 930.8 hPa | - | - | - | - |
| 1788667164 | 13.33° C | 84% | 930.7 hPa | - | - | - | - |
| 1788666264 | 13.33° C | 85% | 930.5 hPa | - | - | - | - |
| 1788665364 | 13.33° C | 85% | 930.5 hPa | - | - | - | - |
| 1788664464 | 13.33° C | 84% | 930.4 hPa | - | - | - | - |
| 1788663564 | 13.33° C | 83% | 930.3 hPa | - | - | - | - |
| 1788662663 | 13.89° C | 80% | 930.4 hPa | - | - | - | - |
| 1788661763 | 14.44° C | 78% | 930.3 hPa | - | - | - | - |
| 1788660863 | 14.44° C | 79% | 930.2 hPa | - | - | - | - |
| 1788659063 | 13.89° C | 80% | 930.2 hPa | - | - | - | - |
| 1788657263 | 14.44° C | 80% | 930.1 hPa | - | - | - | - |
| 1788655467 | 15° C | 77% | 929.9 hPa | - | - | - | - |
| 1788654567 | 15.56° C | 75% | 929.8 hPa | - | - | - | - |
| 1788653667 | 15.56° C | 75% | 929.8 hPa | - | - | - | - |
| 1788652767 | 16.11° C | 72% | 929.7 hPa | - | - | - | - |
| 1788651867 | 16.11° C | 73% | 929.6 hPa | - | - | - | - |
| 1788650967 | 16.11° C | 74% | 929.5 hPa | - | - | - | - |
* Rain since midnight (hover to see other rain measurements)
** Current wind speed in m/s (hover to see current wind gust speed)